Date,TemperatureHighF,TemperatureAvgF,TemperatureLowF,DewpointHighF,DewpointAvgF,DewpointLowF,HumidityHigh,HumidityAvg,HumidityLow,PressureMaxIn,PressureMinIn,WindSpeedMaxMPH,WindSpeedAvgMPH,GustSpeedMaxMPH,PrecipitationSumIn
2013-1-1,46,44,42,42,41,38,91,88,85,29.91,29.52,44,25,44,0.00
2013-1-2,50,47,44,49,46,43,99,98,95,30.17,30.06,32,14,32,0.15
2013-1-3,50,49,48,50,48,47,99,98,98,30.50,30.29,29,16,29,0.03
2013-1-4,48,48,47,48,47,46,98,97,96,30.57,30.53,26,9,26,0.01
2013-1-5,52,49,46,48,46,44,95,92,86,30.49,30.40,31,9,31,0.01
2013-1-6,50,48,45,50,47,45,100,98,95,30.43,30.29,18,5,18,0.01
2013-1-7,49,48,45,48,47,44,96,95,94,30.20,30.10,22,9,22,0.02
2013-1-8,51,48,44,51,48,43,100,97,93,30.18,30.07,23,10,23,0.33
2013-1-9,40,38,33,40,37,33,99,99,97,30.19,30.11,8,2,8,0.02
2013-1-10,38,35,34,38,35,33,99,98,98,29.99,29.93,18,4,18,0.02
2013-1-11,40,38,34,39,38,34,100,98,96,30.04,29.95,16,4,16,0.02
2013-1-12,42,39,34,36,34,31,93,85,80,30.06,29.88,36,13,36,0.00
2013-1-13,36,33,31,34,32,29,100,94,90,30.16,30.06,20,5,20,0.07
2013-1-14,41,37,35,40,36,32,98,95,90,29.86,29.69,22,6,22,0.16
2013-1-15,40,35,31,37,32,28,95,87,80,29.87,29.81,17,4,17,0.16
2013-1-16,35,33,30,30,28,26,88,80,75,29.95,29.83,19,6,19,0.00
2013-1-17,37,35,33,32,31,28,89,83,81,29.97,29.86,29,13,29,0.00
2013-1-18,34,33,31,30,28,26,85,82,76,29.64,29.45,41,20,41,0.00
2013-1-19,36,36,34,32,31,30,86,84,81,29.62,29.50,28,11,28,0.00
2013-1-20,37,36,35,32,31,30,85,81,79,29.54,29.42,40,16,40,0.00
2013-1-21,35,34,32,33,31,29,93,90,88,29.39,29.30,28,12,28,0.06
2013-1-22,40,36,34,34,32,29,90,83,72,29.74,29.50,26,10,26,0.01
2013-1-23,36,35,32,34,31,30,92,86,84,29.85,29.79,18,6,18,0.00
2013-1-24,41,37,34,33,31,28,89,80,70,30.08,29.97,19,6,19,0.00
2013-1-25,36,34,32,33,31,27,95,89,82,29.92,29.44,42,20,42,0.38
2013-1-26,44,41,32,41,39,32,98,91,88,29.67,29.31,37,15,37,0.56
2013-1-27,47,43,40,45,39,36,94,85,81,29.33,29.00,58,28,58,0.15
2013-1-28,48,44,41,46,41,37,95,89,83,29.53,29.12,55,25,55,0.33
2013-1-29,53,49,44,51,46,42,97,92,88,29.48,29.20,59,19,59,0.13
2013-1-30,47,44,42,44,41,39,93,88,83,29.79,29.35,61,28,61,0.11
2013-1-31,46,45,42,42,41,39,92,86,81,29.69,29.49,49,28,49,0.09
2013-2-1,44,42,40,42,40,36,95,92,84,29.61,29.41,37,12,37,0.03
2013-2-2,43,38,32,35,31,27,86,74,57,30.21,29.97,28,11,28,0.00
2013-2-3,46,45,38,46,44,37,98,97,94,29.96,29.77,36,21,36,0.14
2013-2-4,45,44,41,41,39,37,90,84,81,29.80,29.55,49,30,49,0.12
2013-2-5,44,40,32,41,37,32,94,87,80,29.40,29.17,52,32,52,0.13
2013-2-6,43,41,39,34,32,30,77,70,63,30.10,29.75,44,22,46,0.01
2013-2-7,41,38,36,38,36,32,93,89,84,30.09,29.97,18,5,19,0.01
2013-2-8,45,41,33,41,36,31,95,83,66,30.16,30.09,24,6,24,0.01
2013-2-9,40,39,36,40,38,35,97,96,95,30.08,29.86,8,2,8,0.14
2013-2-10,39,38,37,37,36,34,93,92,90,29.52,29.26,40,19,40,0.11
2013-2-11,41,38,36,34,32,30,85,78,70,29.81,29.48,35,13,35,0.00
2013-2-12,39,37,34,33,31,30,86,80,74,30.08,29.95,16,5,16,0.00
2013-2-13,39,35,32,38,33,28,100,94,77,30.04,29.68,44,23,44,0.49
2013-2-14,46,44,41,44,42,40,99,95,90,29.88,29.67,26,10,26,0.28
2013-2-15,48,44,41,44,42,39,96,91,85,30.14,30.00,20,5,20,0.00
2013-2-16,49,45,38,43,41,37,94,84,76,30.18,30.13,18,5,18,0.00
2013-2-17,50,45,39,40,37,33,87,73,63,30.12,30.05,24,8,24,0.00
2013-2-18,50,43,35,37,35,32,89,74,60,30.12,30.07,18,4,18,0.00
2013-2-19,49,42,30,42,36,29,96,83,68,30.10,30.04,14,1,14,0.01
2013-2-20,41,38,35,37,33,28,90,82,72,30.28,30.17,30,12,30,0.00
2013-2-21,41,37,33,29,27,24,75,68,60,30.29,30.24,29,12,29,0.00
2013-2-22,37,36,34,29,28,27,82,73,68,30.25,30.21,23,8,23,0.00
2013-2-23,38,36,33,35,33,30,91,87,80,30.29,30.20,23,10,23,0.01
2013-2-24,42,38,33,36,33,30,90,81,71,30.40,30.32,26,11,26,0.00
2013-2-27,50,50,50,45,45,45,82,82,82,30.09,30.09,10,10,10,0.00
2013-2-28,45,43,38,41,38,35,92,83,72,30.50,30.44,20,2,20,0.01
2013-3-1,47,42,32,39,36,30,89,76,64,30.49,30.44,26,7,26,0.00
2013-3-2,44,38,28,41,35,26,100,90,80,30.45,30.26,8,1,8,0.01
2013-3-3,51,40,33,43,37,31,97,88,67,30.27,30.09,16,2,16,0.00
2013-3-4,50,41,36,39,35,32,89,79,63,30.10,29.72,24,6,24,0.00
2013-3-5,54,41,30,42,36,28,95,83,64,29.72,29.57,19,4,19,0.00
2013-3-6,50,44,38,44,40,35,93,86,79,29.60,29.53,34,10,34,0.00
2013-3-7,52,46,42,47,41,39,91,84,70,29.54,29.38,40,13,40,0.06
2013-3-8,45,44,42,41,40,39,91,88,85,29.59,29.37,47,21,47,0.01
2013-3-9,42,40,38,40,38,32,98,91,87,29.76,29.58,30,13,30,0.16
2013-3-10,41,36,30,35,29,21,87,74,59,29.95,29.76,48,21,50,0.00
2013-3-11,35,30,28,28,25,22,90,79,67,30.02,29.94,58,22,58,0.00
2013-3-12,43,35,27,34,28,22,92,75,56,30.01,29.86,32,14,32,0.00
2013-3-13,46,38,30,34,30,26,86,73,52,29.98,29.84,28,8,29,0.00
2013-3-14,42,36,26,41,33,23,100,89,82,30.00,29.72,31,10,31,0.07
2013-3-15,47,42,39,44,40,38,97,93,86,29.72,29.36,34,11,34,0.35
2013-3-16,44,40,32,41,38,32,96,91,83,29.36,29.19,19,4,19,0.17
2013-3-17,43,39,35,39,37,32,96,92,84,29.20,29.14,24,6,24,0.17
2013-3-18,40,37,33,38,34,32,97,90,83,29.39,29.18,36,11,36,0.07
2013-3-19,46,38,32,40,34,30,94,86,72,29.55,29.39,26,5,26,0.00
2013-3-20,43,38,32,36,34,30,89,82,75,30.00,29.55,29,8,29,0.00
2013-3-21,41,37,33,32,30,29,92,77,65,30.02,29.84,58,19,58,0.00
2013-3-22,37,35,34,33,32,29,92,87,75,29.86,29.73,58,30,58,0.10
2013-3-23,36,34,32,32,30,28,85,81,79,30.04,29.82,59,22,59,0.00
2013-3-24,38,36,33,28,27,26,80,69,63,30.09,30.03,48,25,48,0.00
2013-3-25,37,35,35,28,27,26,74,72,69,30.13,30.10,30,19,37,0.00
2013-3-26,50,36,32,45,29,25,82,73,60,30.09,30.03,40,16,40,0.00
2013-3-27,40,35,32,32,29,28,92,79,65,30.04,29.96,34,14,34,0.00
2013-3-28,42,36,30,33,28,26,92,74,58,30.02,29.97,36,14,37,0.00
2013-3-29,44,36,28,31,28,25,92,73,51,29.97,29.85,31,9,31,0.00
2013-3-30,46,36,28,33,28,24,90,73,46,29.98,29.89,26,10,26,0.00
2013-3-31,46,40,29,32,28,25,88,60,45,30.00,29.91,28,11,29,0.00
2013-4-1,45,40,32,32,29,27,81,63,51,30.00,29.92,35,15,35,0.00
2013-4-2,46,41,32,34,31,28,87,67,54,30.15,30.01,31,13,31,0.00
2013-4-3,48,42,32,34,31,29,87,65,49,30.21,30.15,38,20,38,0.00
2013-4-4,46,41,32,35,32,29,88,69,55,30.15,30.11,48,24,48,0.00
2013-4-5,45,42,32,35,33,31,89,70,61,30.22,30.09,40,20,40,0.00
2013-4-6,47,40,28,36,33,25,90,72,56,30.33,30.24,24,8,25,0.00
2013-4-7,54,45,29,38,34,26,94,66,46,30.17,29.92,32,4,32,0.00
2013-4-8,49,43,32,36,34,32,84,69,57,29.82,29.63,35,17,40,0.00
2013-4-9,48,42,32,38,34,30,83,71,62,29.60,29.53,40,22,40,0.00
2013-4-10,55,46,32,41,36,29,91,68,55,29.67,29.52,16,5,16,0.00
2013-4-11,45,43,32,40,37,32,86,80,73,29.49,29.37,24,12,28,0.02
2013-4-12,52,47,32,45,42,32,95,85,77,29.61,29.31,23,10,23,0.03
2013-4-13,57,50,32,50,44,32,97,80,54,29.75,29.60,36,14,36,0.11
2013-4-14,58,56,53,54,51,47,91,83,71,29.68,29.55,48,23,48,0.05
2013-4-15,58,55,50,49,48,46,87,76,67,29.88,29.74,48,22,48,0.00
2013-4-16,55,52,48,48,46,44,90,81,73,29.93,29.62,56,30,56,0.06
2013-4-17,61,55,48,54,50,43,98,83,73,29.87,29.41,61,24,61,0.14
2013-4-18,52,49,46,46,44,43,94,85,77,29.84,29.37,61,33,71,0.24
2013-4-19,52,48,43,44,42,40,91,81,72,30.45,30.08,28,11,30,0.24
2013-4-20,57,51,36,44,41,34,92,69,51,30.49,30.31,25,9,25,0.00
2013-4-21,50,47,41,46,43,36,92,84,75,30.15,29.93,37,16,37,0.10
2013-4-22,52,49,43,50,46,41,95,90,78,29.90,29.76,46,23,46,0.00
2013-4-23,54,51,46,49,48,44,94,88,82,30.16,29.92,36,21,36,0.00
2013-4-24,53,51,48,50,48,45,96,91,83,30.24,30.05,44,22,44,0.00
2013-4-25,50,48,46,50,46,43,100,93,83,30.14,30.06,32,13,32,0.20
2013-4-26,48,45,39,43,41,36,93,84,78,30.03,29.87,49,21,49,0.03
2013-4-27,53,47,37,42,39,33,95,73,50,30.10,29.99,36,18,36,0.01
2013-4-28,50,47,44,47,44,40,96,91,85,29.96,29.73,48,24,48,0.05
2013-4-29,50,48,44,46,43,40,88,85,77,30.11,29.78,43,27,43,0.00
2013-4-30,54,50,43,45,42,40,89,76,64,30.31,30.21,22,10,22,0.00
2013-5-1,52,49,39,47,44,35,90,81,71,30.25,30.22,28,15,28,0.00
2013-5-2,58,52,35,44,39,32,93,62,39,30.27,30.14,19,4,19,0.00
2013-5-3,57,53,47,50,47,42,87,81,77,30.05,29.87,47,24,47,0.00
2013-5-4,53,50,48,48,46,44,96,86,75,29.99,29.78,35,21,35,0.03
2013-5-5,59,55,48,53,50,46,95,86,77,30.13,30.02,36,19,36,0.01
2013-5-6,65,57,47,53,49,44,90,74,61,30.11,30.03,17,7,17,0.01
2013-5-7,73,65,44,55,49,41,92,59,42,30.04,29.84,34,8,34,0.00
2013-5-8,62,58,51,57,50,43,92,77,66,29.63,29.51,43,21,43,0.04
2013-5-9,53,50,44,48,44,39,93,83,68,29.59,29.31,49,22,49,0.36
2013-5-10,55,51,48,51,48,45,96,90,83,29.73,29.52,42,23,42,0.05
2013-5-11,52,48,44,48,44,40,96,87,73,29.75,29.64,41,23,41,0.28
2013-5-12,52,50,47,50,47,43,97,91,84,29.89,29.71,40,20,40,0.28
2013-5-13,51,48,45,45,42,40,87,79,72,29.74,29.66,50,30,50,0.05
2013-5-14,51,48,44,43,41,32,87,77,69,29.57,29.38,43,16,43,0.09
2013-5-15,53,48,45,46,43,41,91,83,67,29.45,29.20,40,24,40,0.20
2013-5-16,57,51,32,48,44,32,93,77,64,29.58,29.49,26,8,26,0.10
2013-5-17,58,53,45,49,46,42,87,78,62,29.80,29.67,28,14,28,0.00
2013-5-18,51,49,48,50,48,47,100,96,93,29.75,29.67,28,10,28,0.29
2013-5-19,59,54,49,54,52,48,98,92,83,29.95,29.82,26,9,26,0.35
2013-5-20,62,58,52,58,55,51,98,92,87,29.97,29.90,24,8,24,0.00
2013-5-21,60,55,51,55,52,49,97,89,81,30.05,30.00,36,16,36,0.00
2013-5-22,55,53,49,49,46,41,92,78,71,30.10,30.05,50,29,50,0.00
2013-5-23,51,47,43,43,40,37,86,77,66,29.97,29.87,48,24,48,0.04
2013-5-24,52,50,45,44,42,38,83,75,68,30.13,29.81,59,32,59,0.00
2013-5-25,57,52,40,48,44,38,93,75,53,30.21,30.16,25,11,25,0.00
2013-5-26,59,52,39,53,48,37,92,86,77,30.13,29.93,19,7,19,0.00
2013-5-27,54,50,43,50,47,41,94,88,74,29.72,29.50,32,13,32,0.41
2013-5-28,55,52,46,52,49,45,96,90,79,29.60,29.55,22,8,22,0.16
2013-5-29,60,57,49,55,52,46,90,84,80,29.84,29.67,48,24,48,0.01
2013-5-30,63,59,54,55,52,49,91,79,74,30.03,29.83,37,21,37,0.02
2013-5-31,59,55,46,54,52,44,97,90,81,30.16,30.08,37,16,37,0.02
2013-6-1,56,53,32,50,48,32,91,81,72,30.30,30.19,34,19,34,0.00
2013-6-2,57,54,32,51,48,32,88,78,73,30.45,30.34,26,13,26,0.00
2013-6-3,66,60,45,56,53,44,96,78,63,30.50,30.43,20,7,20,0.00
2013-6-4,72,66,52,55,51,47,85,59,44,30.44,30.27,26,8,26,0.00
2013-6-5,70,61,49,58,53,46,92,75,63,30.24,30.11,17,6,17,0.00
2013-6-6,72,63,50,60,55,32,91,74,61,30.24,30.17,19,6,19,0.00
2013-6-7,73,63,32,59,54,32,92,73,56,30.28,30.21,17,5,17,0.00
2013-6-8,72,65,52,56,52,46,80,63,51,30.26,30.09,18,6,18,0.00
2013-6-9,70,63,48,57,53,45,92,72,57,30.07,29.95,16,5,16,0.00
2013-6-10,68,60,50,55,51,46,87,72,59,29.98,29.87,18,4,18,0.00
2013-6-11,67,60,52,58,54,46,85,78,74,29.84,29.72,34,13,34,0.00
2013-6-12,59,58,32,57,56,32,97,92,88,29.69,29.59,36,12,36,0.23
2013-6-13,58,56,55,55,53,51,98,90,82,29.83,29.55,38,20,38,0.13
2013-6-14,62,57,52,58,54,50,95,90,76,29.88,29.66,28,9,28,0.70
2013-6-15,60,56,52,53,50,47,88,79,69,29.61,29.53,42,25,42,0.12
2013-6-16,65,59,54,54,52,49,93,78,58,29.92,29.72,23,10,28,0.01
2013-6-17,70,64,55,55,54,52,89,69,55,30.01,29.96,18,6,18,0.00
2013-6-18,76,66,54,60,55,49,85,67,49,30.00,29.91,18,5,18,0.00
2013-6-19,65,61,56,59,54,50,93,78,64,30.04,29.95,28,13,28,0.00
2013-6-20,68,63,48,59,56,46,95,77,69,29.97,29.76,22,6,22,0.00
2013-6-21,63,60,57,59,57,54,98,88,74,29.80,29.73,26,12,26,0.03
2013-6-22,61,57,53,55,54,52,97,88,76,29.52,29.42,47,25,47,0.65
2013-6-23,59,56,54,55,53,50,95,90,85,29.90,29.50,50,37,50,0.07
2013-6-24,59,56,53,52,50,47,86,78,71,30.25,30.03,36,24,36,0.09
2013-6-25,61,58,47,56,52,45,94,81,66,30.41,30.31,22,8,22,0.00
2013-6-26,62,59,54,55,54,52,94,83,72,30.43,30.39,34,16,34,0.00
2013-6-27,58,55,53,56,53,32,98,91,81,30.35,30.15,30,17,30,0.26
2013-6-28,59,58,56,58,57,52,99,97,87,30.10,30.00,38,20,38,0.49
2013-6-29,59,57,54,58,53,32,97,85,78,30.21,30.13,28,13,29,0.00
2013-6-30,63,59,32,57,55,32,96,86,77,30.12,29.93,43,22,43,0.02
2013-7-1,59,57,55,53,51,49,87,80,72,29.97,29.92,34,20,34,0.00
2013-7-2,59,57,53,56,53,50,96,88,79,29.85,29.51,32,12,32,0.16
2013-7-3,61,59,57,57,56,55,98,90,82,29.89,29.53,29,17,29,0.11
2013-7-4,64,61,57,60,57,54,95,86,78,30.15,29.85,46,21,46,0.01
2013-7-5,68,62,54,56,54,51,91,77,65,30.41,30.29,20,7,20,0.00
2013-7-6,66,62,53,59,56,51,95,80,72,30.42,30.35,17,8,17,0.00
2013-7-7,74,67,54,65,61,52,96,80,73,30.53,30.47,18,6,18,0.00
2013-7-8,81,74,61,68,63,59,93,69,49,30.57,30.47,14,4,14,0.00
2013-7-9,74,70,58,68,63,55,94,80,71,30.45,30.29,19,9,19,0.00
2013-7-10,78,72,64,66,63,59,87,73,64,30.33,30.29,14,4,16,0.00
2013-7-11,72,66,54,65,59,51,92,80,70,30.32,30.24,19,6,20,0.00
2013-7-12,72,68,32,65,61,32,94,80,65,30.27,30.21,14,4,14,0.00
2013-7-13,71,68,58,66,63,56,95,85,74,30.27,30.24,29,10,29,0.00
2013-7-14,65,62,58,58,56,53,94,80,68,30.26,30.21,22,10,22,0.00
2013-7-15,68,62,53,62,59,52,97,88,71,30.23,30.21,23,9,23,0.00
2013-7-16,71,66,54,62,60,53,96,82,69,30.23,30.20,20,9,20,0.01
2013-7-17,76,70,57,65,61,56,97,74,56,30.28,30.25,28,11,28,0.01
2013-7-18,78,74,58,67,63,55,94,71,59,30.34,30.29,17,6,17,0.00
2013-7-19,84,78,62,70,66,60,96,68,54,30.31,30.23,30,9,30,0.00
2013-7-20,77,73,61,63,61,57,86,68,59,30.29,30.20,23,8,23,0.00
2013-7-21,71,66,61,61,58,56,86,77,67,30.19,30.07,24,9,24,0.00
2013-7-22,82,73,59,68,64,56,92,74,61,30.03,29.91,19,8,19,0.00
2013-7-23,75,69,65,68,65,61,95,87,76,29.90,29.83,24,6,24,0.42
2013-7-24,74,69,60,64,62,59,96,80,66,29.89,29.85,18,6,18,0.42
2013-7-25,75,68,62,65,63,60,96,83,66,29.84,29.77,25,8,25,0.31
2013-7-26,71,67,58,63,60,55,92,79,69,29.88,29.84,20,7,20,0.00
2013-7-27,77,71,58,65,61,55,92,71,53,29.81,29.59,19,7,19,0.00
2013-7-28,69,68,67,62,62,60,82,80,79,29.61,29.60,24,12,25,0.86
2013-7-29,70,67,64,63,61,59,88,81,72,29.77,29.67,36,22,36,0.11
2013-7-30,68,64,60,59,57,54,88,77,69,29.82,29.79,35,13,35,0.02
2013-7-31,67,64,61,59,57,56,86,79,72,29.90,29.85,20,7,20,0.02
2013-8-1,81,72,64,71,65,62,93,80,71,29.75,29.58,28,10,29,0.01
2013-8-2,73,69,65,64,62,59,90,78,68,29.66,29.59,32,15,32,0.00
2013-8-3,68,65,61,58,56,54,88,75,65,29.93,29.68,36,22,36,0.00
2013-8-4,70,64,58,62,59,56,95,84,68,29.95,29.85,26,11,26,0.81
2013-8-5,63,62,60,62,60,56,97,94,83,29.82,29.64,35,13,36,1.41
2013-8-6,66,62,53,54,52,50,90,71,58,29.99,29.92,17,4,17,0.00
2013-8-7,72,65,51,58,55,49,92,71,54,30.01,29.96,19,6,19,0.00
2013-8-8,70,65,51,61,57,49,92,77,66,30.06,29.98,14,4,14,0.00
2013-8-9,65,62,60,59,56,53,92,81,70,30.12,29.91,35,22,35,0.03
2013-8-10,65,62,56,58,54,50,88,75,61,30.15,30.05,29,14,29,0.07
2013-8-11,63,61,58,56,55,52,88,80,71,29.98,29.93,38,22,38,0.01
2013-8-12,63,60,58,56,54,51,89,80,70,30.02,29.91,40,28,40,0.03
2013-8-13,64,62,57,58,55,52,85,80,74,30.16,30.06,29,14,29,0.00
2013-8-14,70,65,56,63,59,54,94,81,65,30.14,30.01,23,7,23,0.05
2013-8-15,69,65,62,65,63,32,97,93,84,29.93,29.82,37,18,37,0.53
2013-8-16,65,63,60,59,58,55,95,83,79,29.93,29.79,30,16,30,0.21
2013-8-17,64,61,58,63,59,54,97,92,85,29.82,29.47,38,14,38,1.05
2013-8-18,63,61,58,56,54,51,87,77,67,29.81,29.61,41,22,41,0.01
2013-8-19,64,61,56,57,56,51,85,81,76,30.19,29.93,30,17,30,0.02
2013-8-20,67,63,58,60,58,55,94,83,73,30.30,30.23,22,10,22,0.00
2013-8-21,67,63,58,64,60,55,96,92,87,30.14,30.08,31,13,31,0.08
2013-8-22,72,68,61,65,63,60,96,83,73,30.08,29.97,14,3,14,0.00
2013-8-23,74,68,63,64,62,60,90,82,70,29.94,29.86,23,8,23,0.00
2013-8-24,65,62,58,60,56,51,95,84,68,29.92,29.87,30,14,30,0.03
2013-8-25,75,68,54,66,61,51,93,79,66,30.09,29.93,23,9,23,0.00
2013-8-26,76,68,55,64,60,53,95,76,63,30.15,30.07,17,5,17,0.00
2013-8-27,68,64,54,62,59,51,93,84,76,30.12,30.06,29,9,29,0.00
2013-8-28,63,60,57,58,54,50,96,80,71,30.21,30.16,22,10,22,0.00
2013-8-29,66,63,60,62,60,56,94,90,85,30.09,30.06,29,15,29,0.01
2013-8-30,66,64,61,62,60,58,92,89,85,30.04,29.96,38,17,38,0.01
2013-8-31,62,59,54,54,50,47,80,72,63,30.35,30.20,38,22,38,0.00
2013-9-1,61,59,58,55,53,50,83,80,77,30.36,30.26,41,24,41,0.00
2013-9-2,66,63,60,62,60,56,95,90,85,30.29,30.23,36,21,43,0.00
2013-9-3,68,64,61,62,60,58,96,88,76,30.32,30.24,17,6,17,0.00
2013-9-4,74,65,55,63,58,54,96,78,63,30.16,29.97,17,4,17,0.00
2013-9-5,67,61,54,61,56,52,94,84,74,29.89,29.85,25,10,25,0.00
2013-9-6,56,53,50,53,50,48,93,90,87,29.79,29.74,40,16,40,0.36
2013-9-7,58,53,49,53,50,46,94,89,76,29.92,29.71,38,12,38,0.38
2013-9-8,61,54,48,52,50,44,93,84,69,29.97,29.94,26,8,26,0.25
2013-9-9,61,56,50,56,52,49,96,87,74,30.08,29.94,31,8,31,1.10
2013-9-10,63,58,50,54,51,48,95,78,64,30.18,30.14,30,14,30,0.00
2013-9-11,58,56,50,56,54,48,95,93,86,30.19,30.07,22,6,22,0.32
2013-9-12,64,60,52,61,58,52,98,93,81,30.07,29.96,17,6,17,0.22
2013-9-13,57,56,55,51,50,49,87,80,76,30.06,29.99,22,11,28,0.00
2013-9-14,61,57,50,52,50,48,93,78,67,30.05,29.97,28,12,28,0.02
2013-9-15,61,55,50,60,50,42,96,86,67,29.84,29.37,60,26,60,0.38
2013-9-16,55,53,50,48,46,42,88,78,74,29.48,29.40,55,35,55,0.10
2013-9-17,54,52,49,48,47,45,92,84,75,29.46,29.35,48,18,48,0.15
2013-9-18,57,53,48,51,49,46,94,85,76,29.76,29.48,42,21,42,0.08
2013-9-19,60,55,50,56,52,46,97,88,79,29.75,29.56,48,18,48,0.15
2013-9-20,59,56,52,53,50,47,94,80,69,30.11,29.91,24,11,24,0.00
2013-9-21,63,58,52,60,56,48,94,91,85,30.19,30.09,18,5,18,0.00
2013-9-22,63,61,57,61,59,55,98,93,86,30.33,30.24,22,8,22,0.00
2013-9-23,63,59,51,60,57,50,100,93,87,30.28,30.12,11,2,11,0.01
2013-9-24,68,62,58,61,58,56,94,88,78,30.02,29.91,12,3,12,0.00
2013-9-25,65,61,56,61,58,52,96,91,84,29.91,29.83,29,4,29,0.00
2013-9-26,63,59,54,54,51,47,82,75,68,30.05,29.99,35,9,35,0.00
2013-9-27,69,63,57,57,53,51,82,71,58,30.00,29.91,26,7,26,0.00
2013-9-28,69,61,49,57,52,46,91,73,63,29.87,29.78,32,9,32,0.00
2013-9-29,65,60,55,53,51,48,86,73,61,29.86,29.77,32,12,32,0.00
2013-9-30,63,59,54,54,53,50,87,79,71,29.78,29.70,42,13,42,0.00
2013-10-1,64,59,54,54,52,49,84,79,70,29.81,29.73,41,17,41,0.00
2013-10-2,63,60,55,59,56,52,93,88,82,29.77,29.71,32,15,32,0.18
2013-10-3,68,64,62,62,61,59,95,89,80,29.74,29.53,30,12,30,0.22
2013-10-4,66,62,59,64,60,57,97,94,91,29.83,29.53,29,11,29,0.08
2013-10-5,61,58,54,57,54,50,93,87,80,30.17,29.96,23,12,23,0.08
2013-10-6,65,59,52,59,56,50,94,87,79,30.20,30.15,32,10,32,0.01
2013-10-7,64,62,60,60,59,56,98,90,82,30.18,30.12,30,11,30,0.01
2013-10-8,61,59,57,59,56,52,96,89,82,30.21,30.10,25,14,28,0.16
2013-10-9,56,53,50,51,47,32,90,78,65,30.13,29.99,49,29,49,0.02
2013-10-10,53,49,46,43,40,37,77,71,65,30.29,30.16,42,21,42,0.00
2013-10-11,57,54,50,50,48,44,86,80,76,30.35,30.27,46,24,46,0.00
2013-10-12,59,55,52,53,50,47,85,82,80,30.27,30.15,40,19,40,0.00
2013-10-13,55,53,52,50,48,46,87,82,77,30.03,29.88,40,16,40,0.00
2013-10-14,57,53,50,51,49,45,89,85,78,29.82,29.78,36,20,36,0.02
2013-10-15,59,53,49,54,50,47,95,89,78,29.85,29.79,25,13,25,0.00
2013-10-19,50,50,50,45,45,45,82,82,82,30.09,30.09,10,10,10,0.00
2013-10-25,65,59,32,58,56,32,95,86,78,29.46,29.38,35,13,35,0.35
2013-10-26,59,56,32,55,53,32,96,88,78,29.50,29.27,48,14,48,0.13
2013-10-27,59,56,51,53,51,49,93,84,79,29.16,29.06,53,28,53,0.16
2013-10-28,54,52,50,50,48,43,95,86,74,29.40,28.91,46,21,46,0.30
2013-10-29,53,50,48,48,45,43,91,83,76,29.94,29.40,44,26,44,0.09
2013-10-30,54,51,32,53,46,32,96,85,79,30.00,29.77,43,15,43,0.11
2013-10-31,57,51,48,52,48,45,95,90,79,29.91,29.74,43,14,43,0.11
2013-11-1,53,49,43,49,46,42,96,89,77,29.75,29.58,40,10,40,0.05
2013-11-2,54,46,37,49,43,36,97,91,79,29.58,28.94,65,18,65,0.32
2013-11-3,51,47,39,44,42,36,92,81,75,29.39,29.15,64,24,64,0.00
2013-11-4,50,41,32,45,38,31,96,89,75,29.40,29.19,22,3,22,0.02
2013-11-5,50,46,39,46,43,37,96,89,78,29.34,29.10,46,15,46,0.16
2013-11-6,51,49,47,47,45,41,96,87,78,29.46,29.32,40,13,46,0.30
2013-11-7,53,49,46,47,43,40,85,79,74,29.60,29.46,42,19,42,0.01
2013-11-9,45,41,35,41,38,33,93,89,84,29.62,29.53,14,3,17,0.05
2013-11-10,52,41,33,43,37,31,95,86,68,30.15,29.62,22,2,22,0.01
2013-11-11,55,49,45,54,48,40,98,95,80,30.12,29.92,34,11,34,0.26
2013-11-12,52,50,47,50,46,43,97,86,75,30.45,30.11,31,16,31,0.00
2013-11-13,51,48,45,49,45,42,95,89,80,30.46,29.98,38,14,38,0.13
2013-11-14,50,46,32,47,40,32,92,80,68,30.49,29.98,54,21,54,0.10
2013-11-15,50,44,34,48,41,31,95,91,87,30.52,30.44,13,3,13,0.00
2013-11-16,51,50,32,50,47,32,96,89,84,30.45,30.34,19,7,19,0.01
2013-11-17,52,50,46,50,49,45,98,96,94,30.30,30.08,22,6,22,0.00
2013-11-18,49,45,39,47,42,36,97,89,76,29.82,29.76,40,9,40,0.17
2013-11-19,45,39,33,43,34,29,93,82,66,30.04,29.78,43,11,43,0.09
2013-11-20,48,45,42,45,39,36,93,81,70,29.83,29.41,60,27,60,0.19
2013-11-21,46,43,40,41,38,36,88,84,79,30.00,29.56,55,21,55,0.00
2013-11-22,47,39,32,40,36,30,93,87,76,30.24,30.11,18,5,18,0.00
2013-11-23,45,36,29,41,34,27,95,91,82,30.39,30.24,13,1,18,0.01
2013-11-24,46,41,36,42,38,34,93,90,85,30.62,30.38,17,4,18,0.08
2013-11-25,46,39,31,38,35,29,93,85,71,30.72,30.65,7,1,8,0.00
2013-11-26,48,45,40,46,43,37,94,92,88,30.67,30.58,19,6,19,0.00
2013-11-27,51,49,46,49,47,43,96,93,91,30.54,30.49,22,12,22,0.00
2013-11-28,49,47,42,49,45,41,98,94,88,30.58,30.51,20,4,20,0.01
2013-11-29,50,47,46,47,42,40,92,83,77,30.26,30.17,48,27,48,0.03
2013-11-30,49,44,34,46,39,31,93,85,73,30.42,30.32,18,3,18,0.00
2013-12-1,51,48,46,49,46,44,96,93,87,30.56,30.42,12,2,24,0.01
2013-12-2,47,46,45,44,43,41,93,90,87,30.55,30.41,18,6,18,0.21
2013-12-3,49,48,44,47,45,42,92,91,89,30.34,30.25,22,10,22,0.00
2013-12-4,47,45,41,43,40,38,92,84,79,30.38,30.27,35,20,35,0.08
2013-12-5,50,45,39,47,39,34,93,81,69,30.13,29.78,78,39,78,0.19
2013-12-6,44,42,41,41,38,34,100,86,75,30.31,30.25,32,9,32,0.02
2013-12-7,49,48,47,47,46,44,96,91,89,30.20,30.10,31,16,31,0.09
2013-12-8,51,50,49,49,48,46,95,93,92,30.11,30.04,42,25,42,0.11
2013-12-9,53,50,46,50,48,42,95,91,85,30.28,30.18,30,11,31,0.36
2013-12-10,49,47,32,46,44,32,91,86,85,30.30,30.25,24,12,24,0.00
2013-12-12,53,52,32,51,50,32,95,92,90,30.05,30.03,22,11,26,0.03
2013-12-13,54,52,48,52,49,45,94,91,87,29.96,29.81,44,17,44,0.07
2013-12-14,54,48,41,50,44,37,93,87,72,30.04,29.67,54,20,54,0.16
2013-12-15,53,48,41,51,45,38,96,89,82,30.00,29.68,35,12,40,0.15
2013-12-16,52,46,43,50,44,40,95,90,84,30.01,29.61,41,15,41,0.20
2013-12-17,44,41,38,41,38,36,94,90,84,30.17,29.96,20,10,20,0.75
2013-12-18,53,48,41,50,45,38,93,90,86,29.77,28.93,58,24,58,0.39
2013-12-19,45,42,39,39,38,36,92,84,75,29.57,29.18,44,18,46,0.13
2013-12-20,50,46,32,48,43,32,94,88,84,29.90,29.63,47,21,47,0.46
2013-12-21,51,49,44,47,45,41,93,86,79,29.68,29.31,53,22,55,0.34
2013-12-22,45,44,39,42,38,35,92,82,73,29.66,29.44,53,28,53,0.07
2013-12-23,52,46,38,50,44,35,96,90,84,29.61,28.60,52,21,52,0.36
2013-12-24,46,42,37,41,37,34,92,81,69,28.68,28.53,60,27,60,0.23
2013-12-25,44,39,37,40,37,35,94,91,86,29.10,28.72,26,10,28,0.05
2013-12-26,42,39,35,41,37,33,100,93,86,29.32,29.08,32,9,32,0.06
2013-12-27,49,47,32,43,42,32,88,80,77,28.94,28.47,74,44,74,0.08
2013-12-28,45,44,43,42,41,40,90,87,83,29.50,29.06,32,19,32,0.05
2013-12-29,46,44,41,42,40,37,90,86,82,29.88,29.65,34,16,34,0.08
2013-12-30,52,47,42,49,45,39,93,91,88,29.68,29.21,61,24,61,0.32
2013-12-31,49,45,43,45,42,39,95,89,84,29.55,29.31,47,16,47,0.21
2014-1-1,52,46,41,50,44,38,94,91,88,29.34,28.75,48,20,48,0.35
2014-1-2,49,46,43,44,43,40,95,89,82,29.23,28.96,40,15,40,0.10